createdAt,value
2022-10-09T00:01:30.272Z,6.65
2022-10-09T00:03:59.541Z,6.72
2022-10-09T00:06:28.953Z,6.93
2022-10-09T00:08:57.650Z,6.80
2022-10-09T00:11:28.841Z,7.38
2022-10-09T00:13:57.756Z,7.30
2022-10-09T00:16:26.645Z,6.93
2022-10-09T00:18:55.170Z,7.82
2022-10-09T00:21:25.341Z,6.82
2022-10-09T00:23:54.762Z,8.13
2022-10-09T00:26:23.872Z,7.25
2022-10-09T00:28:54.276Z,7.93
2022-10-09T00:31:22.793Z,7.60
2022-10-09T00:33:51.547Z,7.75
2022-10-09T00:36:23.827Z,7.38
2022-10-09T00:38:52.548Z,7.38
2022-10-09T00:41:22.844Z,7.43
2022-10-09T00:43:52.468Z,7.45
2022-10-09T00:46:26.592Z,6.35
2022-10-09T00:48:58.906Z,6.90
2022-10-09T00:51:27.616Z,6.90
2022-10-09T00:53:56.105Z,6.40
2022-10-09T00:56:24.685Z,6.25
2022-10-09T00:58:55.266Z,6.30
2022-10-09T01:01:25.397Z,5.57
2022-10-09T01:03:54.097Z,5.75
2022-10-09T01:06:25.143Z,4.60
2022-10-09T01:08:56.442Z,5.07
2022-10-09T01:11:32.461Z,4.68
2022-10-09T01:14:05.714Z,4.65
2022-10-09T01:16:38.484Z,5.10
2022-10-09T01:19:13.049Z,4.78
2022-10-09T01:21:43.761Z,5.20
2022-10-09T01:24:22.837Z,4.90
2022-10-09T01:27:06.285Z,3.92
2022-10-09T01:29:36.242Z,4.70
2022-10-09T01:32:05.757Z,5.30
2022-10-09T01:34:34.633Z,4.70
2022-10-09T01:37:03.092Z,5.05
2022-10-09T01:39:31.868Z,5.15
2022-10-09T01:42:00.894Z,4.68
2022-10-09T01:44:32.593Z,5.18
2022-10-09T01:47:01.320Z,4.82
2022-10-09T01:49:41.194Z,5.40
2022-10-09T01:52:14.463Z,5.40
2022-10-09T01:54:46.051Z,5.65
2022-10-09T01:57:16.516Z,5.25
2022-10-09T01:59:47.078Z,5.75
2022-10-09T02:02:15.779Z,5.50
2022-10-09T02:04:45.224Z,6.03
2022-10-09T02:07:13.756Z,5.97
2022-10-09T02:09:42.645Z,5.60
2022-10-09T02:12:12.554Z,5.47
2022-10-09T02:14:41.041Z,6.20
2022-10-09T02:17:12.223Z,5.85
2022-10-09T02:19:46.460Z,5.70
2022-10-09T02:22:17.337Z,6.30
2022-10-09T02:24:46.639Z,6.10
2022-10-09T02:27:15.432Z,6.30
2022-10-09T02:29:45.550Z,6.07
2022-10-09T02:32:18.578Z,6.32
2022-10-09T02:34:47.619Z,6.57
2022-10-09T02:37:16.176Z,6.88
2022-10-09T02:39:44.692Z,6.88
2022-10-09T02:42:13.353Z,6.43
2022-10-09T02:44:41.823Z,7.25
2022-10-09T02:47:11.029Z,7.43
2022-10-09T02:49:40.992Z,6.43
2022-10-09T02:52:09.640Z,7.30
2022-10-09T02:54:38.404Z,7.40
2022-10-09T02:57:07.139Z,7.57
2022-10-09T02:59:35.999Z,7.05
2022-10-09T03:02:04.854Z,6.90
2022-10-09T03:04:33.946Z,7.10
2022-10-09T03:07:04.347Z,7.35
2022-10-09T03:09:33.980Z,7.28
2022-10-09T03:12:02.693Z,7.70
2022-10-09T03:14:31.460Z,7.53
2022-10-09T03:16:59.891Z,7.13
2022-10-09T03:19:28.300Z,7.53
2022-10-09T03:21:56.769Z,6.78
2022-10-09T03:24:26.992Z,7.10
2022-10-09T03:26:55.719Z,6.97
2022-10-09T03:29:24.160Z,7.22
2022-10-09T03:31:53.594Z,7.60
2022-10-09T03:34:22.529Z,7.13
2022-10-09T03:36:51.516Z,6.63
2022-10-09T03:39:20.029Z,7.38
2022-10-09T03:41:50.841Z,7.18
2022-10-09T03:44:19.437Z,7.05
2022-10-09T03:46:48.246Z,7.43
2022-10-09T03:49:17.695Z,6.72
2022-10-09T03:51:48.324Z,8.02
2022-10-09T03:54:17.393Z,7.32
2022-10-09T03:56:45.874Z,7.53
2022-10-09T03:59:16.063Z,7.40
2022-10-09T04:01:45.296Z,7.03
2022-10-09T04:04:13.831Z,7.78
2022-10-09T04:06:42.294Z,6.13
2022-10-09T04:09:11.007Z,6.57
2022-10-09T04:11:40.108Z,6.03
2022-10-09T04:14:08.946Z,6.25
2022-10-09T04:16:39.239Z,5.80
2022-10-09T04:19:08.371Z,6.40
2022-10-09T04:21:37.312Z,6.47
2022-10-09T04:24:08.592Z,6.68
2022-10-09T04:26:37.607Z,6.25
2022-10-09T04:29:06.399Z,6.18
2022-10-09T04:31:35.096Z,6.05
2022-10-09T04:34:05.034Z,5.90
2022-10-09T04:36:33.461Z,7.05
2022-10-09T04:39:02.719Z,6.60
2022-10-09T04:41:35.988Z,6.32
2022-10-09T04:44:07.318Z,6.65
2022-10-09T04:46:36.190Z,12.13
2022-10-09T04:49:06.152Z,6.10
2022-10-09T04:51:35.491Z,6.00
2022-10-09T04:54:06.232Z,6.78
2022-10-09T04:56:36.507Z,8.60
2022-10-09T04:59:05.535Z,8.02
2022-10-09T05:01:38.081Z,7.97
2022-10-09T05:04:08.545Z,12.03
2022-10-09T05:06:37.246Z,7.68
2022-10-09T05:09:06.447Z,6.60
2022-10-09T05:11:37.208Z,5.65
2022-10-09T05:14:09.993Z,6.47
2022-10-09T05:17:08.132Z,6.75
2022-10-09T05:19:29.387Z,6.70
2022-10-09T05:21:58.219Z,6.40
2022-10-09T05:24:27.298Z,6.30
2022-10-09T05:26:56.115Z,6.75
2022-10-09T05:29:24.886Z,7.35
2022-10-09T05:31:53.416Z,6.22
2022-10-09T05:34:21.941Z,6.45
2022-10-09T05:36:52.418Z,6.82
2022-10-09T05:39:20.947Z,6.28
2022-10-09T05:41:52.405Z,7.00
2022-10-09T05:44:21.159Z,7.20
2022-10-09T05:46:49.570Z,7.30
2022-10-09T05:49:18.462Z,6.65
2022-10-09T05:51:47.109Z,6.57
2022-10-09T05:54:17.565Z,6.38
2022-10-09T05:56:46.581Z,6.60
2022-10-09T05:59:15.931Z,6.70
2022-10-09T06:01:45.540Z,6.75
2022-10-09T06:04:15.191Z,6.40
2022-10-09T06:06:44.194Z,6.13
2022-10-09T06:09:13.217Z,6.95
2022-10-09T06:11:43.090Z,6.28
2022-10-09T06:14:13.227Z,7.22
2022-10-09T06:16:43.958Z,7.65
2022-10-09T06:19:13.922Z,6.80
2022-10-09T06:21:42.503Z,7.22
2022-10-09T06:24:14.351Z,7.22
2022-10-09T06:26:44.697Z,7.72
2022-10-09T06:29:13.385Z,8.13
2022-10-09T06:31:41.958Z,7.30
2022-10-09T06:34:11.820Z,7.45
2022-10-09T06:36:40.536Z,6.30
2022-10-09T06:39:09.946Z,6.68
2022-10-09T06:41:38.354Z,6.60
2022-10-09T06:44:13.993Z,6.90
2022-10-09T06:46:45.301Z,5.95
2022-10-09T06:49:16.850Z,7.03
2022-10-09T06:51:45.435Z,6.97
2022-10-09T06:54:15.289Z,7.10
2022-10-09T06:56:59.006Z,6.32
2022-10-09T06:59:29.877Z,7.40
2022-10-09T07:01:58.622Z,6.35
2022-10-09T07:04:27.496Z,6.53
2022-10-09T07:06:56.525Z,7.32
2022-10-09T07:09:25.169Z,7.35
2022-10-09T07:11:53.976Z,7.20
2022-10-09T07:14:22.843Z,6.80
2022-10-09T07:16:54.396Z,7.13
2022-10-09T07:19:23.361Z,7.32
2022-10-09T07:21:53.370Z,6.80
2022-10-09T07:24:25.436Z,7.38
2022-10-09T07:26:55.817Z,8.07
2022-10-09T07:29:24.581Z,8.73
2022-10-09T07:31:55.186Z,8.32
2022-10-09T07:34:24.147Z,7.45
2022-10-09T07:36:58.265Z,6.72
2022-10-09T07:39:27.113Z,7.45
2022-10-09T07:41:55.927Z,8.38
2022-10-09T07:44:24.805Z,8.45
2022-10-09T07:46:55.076Z,8.15
2022-10-09T07:49:23.677Z,8.13
2022-10-09T07:51:52.634Z,9.93
2022-10-09T07:54:21.464Z,8.90
2022-10-09T07:56:50.356Z,11.13
2022-10-09T07:59:19.234Z,9.80
2022-10-09T08:01:48.273Z,10.13
2022-10-09T08:04:31.071Z,9.55
2022-10-09T08:07:00.457Z,8.10
2022-10-09T08:09:34.501Z,9.10
2022-10-09T08:12:04.294Z,10.63
2022-10-09T08:14:32.878Z,10.43
2022-10-09T08:17:01.472Z,10.05
2022-10-09T08:19:31.444Z,10.07
2022-10-09T08:22:03.248Z,9.55
2022-10-09T08:24:34.671Z,8.20
2022-10-09T08:27:05.552Z,9.15
2022-10-09T08:29:40.220Z,8.57
2022-10-09T08:32:08.934Z,8.93
2022-10-09T08:34:40.247Z,9.07
2022-10-09T08:37:08.715Z,9.77
2022-10-09T08:39:37.408Z,8.88
2022-10-09T08:42:06.381Z,10.00
2022-10-09T08:44:38.671Z,12.45
2022-10-09T08:47:14.328Z,10.18
2022-10-09T08:49:55.724Z,9.95
2022-10-09T08:52:29.666Z,11.70
2022-10-09T08:54:59.566Z,9.50
2022-10-09T08:57:32.187Z,9.95
2022-10-09T09:00:00.892Z,8.68
2022-10-09T09:02:43.431Z,9.00
2022-10-09T09:05:21.882Z,7.90
2022-10-09T09:07:57.081Z,8.52
2022-10-09T09:10:34.048Z,8.35
2022-10-09T09:13:09.249Z,8.65
2022-10-09T09:15:45.759Z,7.72
2022-10-09T09:18:24.691Z,7.63
2022-10-09T09:21:00.117Z,7.40
2022-10-09T09:23:31.943Z,6.93
2022-10-09T09:26:02.578Z,6.35
2022-10-09T09:28:39.355Z,6.78
2022-10-09T09:31:10.812Z,6.47
2022-10-09T09:33:47.190Z,6.63
2022-10-09T09:36:22.792Z,6.40
2022-10-09T09:39:44.238Z,6.40
2022-10-09T09:41:48.072Z,6.45
2022-10-09T09:44:27.177Z,5.68
2022-10-09T09:46:56.450Z,5.53
2022-10-09T09:52:52.784Z,4.80
2022-10-09T09:59:21.783Z,5.07
2022-10-09T10:05:48.136Z,4.72
2022-10-09T10:09:00.157Z,4.55
2022-10-09T14:39:50.250Z,1.00
2022-10-09T14:48:35.751Z,1.00
2022-10-09T14:51:17.445Z,1.45
2022-10-09T15:04:27.176Z,0.75
2022-10-09T15:07:10.159Z,0.85
2022-10-09T15:11:08.672Z,1.40
2022-10-09T15:17:03.026Z,1.35
2022-10-09T15:29:12.840Z,1.00
2022-10-09T15:32:02.413Z,1.38
2022-10-09T15:34:56.979Z,1.20
2022-10-09T15:40:39.471Z,1.15
2022-10-09T15:43:16.944Z,1.40
2022-10-09T15:46:16.241Z,1.00
2022-10-09T15:48:53.534Z,1.70
2022-10-09T15:51:47.348Z,2.15
2022-10-09T15:54:16.209Z,1.60
2022-10-09T15:57:08.861Z,1.40
2022-10-09T15:59:41.800Z,1.40
2022-10-09T16:02:15.283Z,1.20
2022-10-09T16:05:14.867Z,1.17
2022-10-09T16:07:58.066Z,1.23
2022-10-09T16:10:26.802Z,1.10
2022-10-09T16:12:58.986Z,1.48
2022-10-09T16:15:52.896Z,1.52
2022-10-09T16:18:26.370Z,1.50
2022-10-09T16:21:08.318Z,1.40
2022-10-09T16:23:41.524Z,1.40
2022-10-09T16:29:24.566Z,1.50
2022-10-09T16:32:17.784Z,1.40
2022-10-09T16:34:53.824Z,1.20
2022-10-09T16:43:39.341Z,1.25
2022-10-09T16:49:25.169Z,1.20
2022-10-09T16:52:05.858Z,1.40
2022-10-09T16:54:39.349Z,1.30
2022-10-09T16:57:17.244Z,2.30
2022-10-09T16:59:48.757Z,1.67
2022-10-09T17:02:23.870Z,1.60
2022-10-09T17:05:07.867Z,1.60
2022-10-09T17:10:36.933Z,2.05
2022-10-09T17:13:11.742Z,1.90
2022-10-09T17:15:44.895Z,1.88
2022-10-09T17:18:19.352Z,2.05
2022-10-09T17:20:50.536Z,2.13
2022-10-09T17:23:19.212Z,2.38
2022-10-09T17:25:53.935Z,3.90
2022-10-09T17:28:22.823Z,4.80
2022-10-09T17:30:51.641Z,4.85
2022-10-09T17:33:20.409Z,4.28
2022-10-09T17:35:49.686Z,4.32
2022-10-09T17:38:21.139Z,4.18
2022-10-09T17:40:51.552Z,4.32
2022-10-09T17:43:25.203Z,6.28
2022-10-09T17:45:53.942Z,5.78
2022-10-09T17:48:22.547Z,5.18
2022-10-09T17:50:56.867Z,4.25
2022-10-09T17:53:31.511Z,5.15
2022-10-09T17:56:11.771Z,4.85
2022-10-09T17:58:40.660Z,4.65
2022-10-09T18:01:11.097Z,5.88
2022-10-09T18:03:39.968Z,6.70
2022-10-09T18:06:09.777Z,5.88
2022-10-09T18:08:40.021Z,7.05
2022-10-09T18:11:12.403Z,5.82
2022-10-09T18:13:44.440Z,4.95
2022-10-09T18:16:14.301Z,5.30
2022-10-09T18:18:43.072Z,5.70
2022-10-09T18:21:12.583Z,6.03
2022-10-09T18:23:41.517Z,5.68
2022-10-09T18:26:12.574Z,6.00
2022-10-09T18:28:43.545Z,9.10
2022-10-09T18:31:15.520Z,11.43
2022-10-09T18:33:44.261Z,9.35
2022-10-09T18:36:19.408Z,9.60
2022-10-09T18:38:54.623Z,7.50
2022-10-09T18:41:26.955Z,7.80
2022-10-09T18:44:08.207Z,6.78
2022-10-09T18:46:38.294Z,6.88
2022-10-09T18:49:09.818Z,6.05
2022-10-09T18:51:45.683Z,6.15
2022-10-09T18:54:21.059Z,5.57
2022-10-09T18:56:53.186Z,6.25
2022-10-09T18:59:27.258Z,6.43
2022-10-09T19:01:59.319Z,7.05
2022-10-09T19:04:32.101Z,8.60
2022-10-09T19:07:04.989Z,10.77
2022-10-09T19:09:42.743Z,8.48
2022-10-09T19:12:44.025Z,8.85
2022-10-09T19:15:23.641Z,8.73
2022-10-09T19:18:00.973Z,8.93
2022-10-09T19:20:36.326Z,8.82
2022-10-09T19:23:07.483Z,6.85
2022-10-09T19:26:13.632Z,7.75
2022-10-09T19:28:50.941Z,6.55
2022-10-09T19:31:37.549Z,5.70
2022-10-09T19:34:07.231Z,6.35
2022-10-09T19:36:47.476Z,4.70
2022-10-09T19:39:16.965Z,4.63
2022-10-09T19:41:51.190Z,4.28
2022-10-09T19:44:25.994Z,3.67
2022-10-09T19:46:59.712Z,3.65
2022-10-09T19:49:39.030Z,3.55
2022-10-09T19:52:08.282Z,2.70
2022-10-09T19:54:41.805Z,2.88
2022-10-09T19:57:17.474Z,2.97
2022-10-09T19:59:47.975Z,2.50
2022-10-09T20:02:18.846Z,2.42
2022-10-09T20:04:52.731Z,2.78
2022-10-09T20:09:50.941Z,4.03
2022-10-09T20:12:20.281Z,4.05
2022-10-09T20:14:56.440Z,4.32
2022-10-09T20:17:27.323Z,4.45
2022-10-09T20:19:58.873Z,4.35
2022-10-09T20:22:41.802Z,4.10
2022-10-09T20:25:11.190Z,4.03
2022-10-09T20:27:44.498Z,4.13
2022-10-09T20:30:15.847Z,3.70
2022-10-09T20:32:46.411Z,3.42
2022-10-09T20:35:18.043Z,3.85
2022-10-09T20:37:47.636Z,3.95
2022-10-09T20:40:19.916Z,3.60
2022-10-09T20:42:51.633Z,3.90
2022-10-09T20:45:22.306Z,4.25
2022-10-09T20:47:51.235Z,4.38
2022-10-09T20:50:20.272Z,4.20
2022-10-09T20:52:49.646Z,3.90
2022-10-09T20:55:18.779Z,4.07
2022-10-09T20:57:54.758Z,3.72
2022-10-09T21:00:25.178Z,4.00
2022-10-09T21:02:54.325Z,4.88
2022-10-09T21:05:25.849Z,5.25
2022-10-09T21:07:54.562Z,5.00
2022-10-09T21:10:23.395Z,5.43
2022-10-09T21:12:52.946Z,5.30
2022-10-09T21:15:22.165Z,5.18
2022-10-09T21:17:52.248Z,4.28
2022-10-09T21:20:20.853Z,4.68
2022-10-09T21:22:49.618Z,4.35
2022-10-09T21:25:19.047Z,3.58
2022-10-09T21:27:48.172Z,3.65
2022-10-09T21:30:16.858Z,4.07
2022-10-09T21:32:45.539Z,3.75
2022-10-09T21:35:15.809Z,3.65
2022-10-09T21:37:44.342Z,4.05
2022-10-09T21:40:13.147Z,3.97
2022-10-09T21:42:42.157Z,4.18
2022-10-09T21:45:14.874Z,3.60
2022-10-09T21:47:45.590Z,3.88
2022-10-09T21:50:16.010Z,3.97
2022-10-09T21:52:44.733Z,3.60
2022-10-09T21:55:13.545Z,3.70
2022-10-09T21:57:45.088Z,4.55
2022-10-09T22:00:14.424Z,7.95
2022-10-09T22:02:43.394Z,13.40
2022-10-09T22:05:12.675Z,9.93
2022-10-09T22:07:43.205Z,4.35
2022-10-09T22:10:12.551Z,3.90
2022-10-09T22:12:41.361Z,4.75
2022-10-09T22:15:10.452Z,4.10
2022-10-09T22:17:39.169Z,3.45
2022-10-09T22:20:08.238Z,2.72
2022-10-09T22:22:36.716Z,3.05
2022-10-09T22:25:07.129Z,3.10
2022-10-09T22:27:36.381Z,3.08
2022-10-09T22:30:05.506Z,2.85
2022-10-09T22:32:36.568Z,3.10
2022-10-09T22:35:05.512Z,3.45
2022-10-09T22:37:34.307Z,3.33
2022-10-09T22:40:03.498Z,3.72
2022-10-09T22:42:33.918Z,4.30
2022-10-09T22:45:02.768Z,4.75
2022-10-09T22:47:31.682Z,3.92
2022-10-09T22:50:00.833Z,4.32
2022-10-09T22:52:30.079Z,3.72
2022-10-09T22:55:01.087Z,3.22
2022-10-09T22:57:29.870Z,3.47
2022-10-09T23:00:00.281Z,3.47
2022-10-09T23:02:29.523Z,3.40
2022-10-09T23:04:58.383Z,3.20
2022-10-09T23:07:27.236Z,3.33
2022-10-09T23:09:56.082Z,2.70
2022-10-09T23:12:24.906Z,3.15
2022-10-09T23:14:55.407Z,3.50
2022-10-09T23:17:25.593Z,3.78
2022-10-09T23:19:54.762Z,3.35
2022-10-09T23:22:26.482Z,3.78
2022-10-09T23:24:58.679Z,3.72
2022-10-09T23:27:27.340Z,2.65
2022-10-09T23:29:56.121Z,2.83
2022-10-09T23:32:26.366Z,2.55
2022-10-09T23:34:55.249Z,2.50
2022-10-09T23:37:23.998Z,2.75
2022-10-09T23:39:52.620Z,2.80
2022-10-09T23:42:24.111Z,3.30
2022-10-09T23:44:53.023Z,2.13
2022-10-09T23:47:21.582Z,2.70
2022-10-09T23:49:51.988Z,3.00
2022-10-09T23:52:20.589Z,2.83
2022-10-09T23:54:49.347Z,2.90
2022-10-09T23:57:19.133Z,2.75
2022-10-09T23:59:47.756Z,2.70
